createdAt,value
2022-11-22T00:00:10.130Z,10.00
2022-11-22T00:02:39.419Z,14.75
2022-11-22T00:05:09.584Z,8.75
2022-11-22T00:07:39.488Z,9.00
2022-11-22T00:10:09.767Z,7.50
2022-11-22T00:12:39.059Z,10.25
2022-11-22T00:15:09.008Z,7.25
2022-11-22T00:17:39.745Z,10.25
2022-11-22T00:20:09.719Z,15.75
2022-11-22T00:22:44.242Z,15.00
2022-11-22T00:25:15.816Z,12.25
2022-11-22T00:27:48.105Z,16.00
2022-11-22T00:30:18.349Z,13.25
2022-11-22T00:32:47.667Z,12.75
2022-11-22T00:35:17.039Z,10.25
2022-11-22T00:37:46.377Z,16.25
2022-11-22T00:40:15.755Z,13.50
2022-11-22T00:42:45.094Z,13.75
2022-11-22T00:45:14.385Z,15.00
2022-11-22T00:47:43.700Z,13.75
2022-11-22T00:50:13.241Z,18.75
2022-11-22T00:52:42.610Z,32.00
2022-11-22T00:55:11.914Z,17.00
2022-11-22T00:57:41.195Z,16.50
2022-11-22T01:00:11.010Z,17.25
2022-11-22T01:02:40.374Z,17.75
2022-11-22T01:05:09.866Z,15.00
2022-11-22T01:07:39.458Z,17.50
2022-11-22T01:10:09.059Z,16.50
2022-11-22T01:12:38.361Z,12.75
2022-11-22T01:15:08.362Z,18.25
2022-11-22T01:17:37.676Z,17.25
2022-11-22T01:20:07.384Z,17.25
2022-11-22T01:22:36.753Z,15.75
2022-11-22T01:25:06.150Z,24.50
2022-11-22T01:27:35.870Z,20.00
2022-11-22T01:30:05.704Z,19.75
2022-11-22T01:32:35.006Z,21.75
2022-11-22T01:35:04.403Z,22.00
2022-11-22T01:37:33.759Z,21.50
2022-11-22T01:40:03.116Z,23.25
2022-11-22T01:42:52.731Z,18.00
2022-11-22T01:45:31.356Z,21.00
2022-11-22T01:48:02.641Z,18.50
2022-11-22T01:50:34.623Z,17.50
2022-11-22T01:53:11.186Z,17.50
2022-11-22T01:55:42.028Z,18.75
2022-11-22T01:58:12.290Z,17.75
2022-11-22T02:00:41.627Z,17.75
2022-11-22T02:03:13.198Z,16.50
2022-11-22T02:05:43.336Z,19.50
2022-11-22T02:08:17.402Z,18.50
2022-11-22T02:10:50.435Z,19.50
2022-11-22T02:13:21.089Z,20.50
2022-11-22T02:15:52.200Z,17.50
2022-11-22T02:18:22.028Z,14.75
2022-11-22T02:20:51.309Z,17.75
2022-11-22T02:23:38.798Z,15.50
2022-11-22T02:26:08.260Z,16.00
2022-11-22T02:28:39.741Z,14.75
2022-11-22T02:31:09.631Z,16.25
2022-11-22T02:33:38.876Z,18.50
2022-11-22T02:36:08.235Z,14.75
2022-11-22T02:38:37.581Z,19.50
2022-11-22T02:41:14.009Z,16.50
2022-11-22T02:43:47.218Z,13.50
2022-11-22T02:46:22.246Z,15.25
2022-11-22T02:48:52.367Z,18.50
2022-11-22T02:51:21.766Z,16.50
2022-11-22T02:53:53.630Z,15.00
2022-11-22T02:56:24.528Z,12.75
2022-11-22T02:58:54.283Z,14.25
2022-11-22T03:01:23.705Z,17.00
2022-11-22T03:03:53.157Z,15.75
2022-11-22T03:06:22.409Z,14.00
2022-11-22T03:08:56.143Z,17.75
2022-11-22T03:11:26.750Z,14.50
2022-11-22T03:13:56.044Z,15.25
2022-11-22T03:16:25.359Z,14.50
2022-11-22T03:18:54.665Z,12.75
2022-11-22T03:21:23.950Z,15.50
2022-11-22T03:23:53.286Z,14.00
2022-11-22T03:26:22.617Z,17.75
2022-11-22T03:28:52.016Z,12.75
2022-11-22T03:31:21.312Z,16.75
2022-11-22T03:33:50.705Z,15.50
2022-11-22T03:36:20.435Z,15.25
2022-11-22T03:38:50.901Z,12.50
2022-11-22T03:41:20.789Z,15.50
2022-11-22T03:43:50.283Z,13.00
2022-11-22T03:46:23.130Z,13.25
2022-11-22T03:48:52.848Z,14.75
2022-11-22T03:51:22.358Z,14.75
2022-11-22T03:53:51.664Z,13.75
2022-11-22T03:56:21.052Z,15.75
2022-11-22T03:58:50.491Z,16.50
2022-11-22T04:01:19.841Z,18.75
2022-11-22T04:03:49.214Z,13.25
2022-11-22T04:06:18.569Z,12.00
2022-11-22T04:08:48.892Z,14.75
2022-11-22T04:11:18.269Z,17.25
2022-11-22T04:14:05.530Z,14.25
2022-11-22T04:16:34.819Z,15.25
2022-11-22T04:19:04.119Z,11.50
2022-11-22T04:21:36.196Z,17.75
2022-11-22T04:24:27.819Z,17.00
2022-11-22T04:26:58.140Z,17.50
2022-11-22T04:29:28.630Z,15.00
2022-11-22T04:32:16.435Z,12.75
2022-11-22T04:34:45.790Z,15.25
2022-11-22T04:37:15.159Z,16.25
2022-11-22T04:39:44.579Z,12.50
2022-11-22T04:42:31.875Z,12.75
2022-11-22T04:45:01.438Z,14.25
2022-11-22T04:47:50.468Z,15.00
2022-11-22T04:50:39.020Z,23.50
2022-11-22T04:53:08.742Z,17.00
2022-11-22T04:55:38.286Z,18.25
2022-11-22T04:58:08.393Z,17.00
2022-11-22T05:00:38.412Z,16.50
2022-11-22T05:03:08.526Z,15.25
2022-11-22T05:05:39.176Z,16.00
2022-11-22T05:08:09.463Z,21.00
2022-11-22T05:10:58.378Z,22.25
2022-11-22T05:13:35.441Z,19.50
2022-11-22T05:16:06.840Z,19.25
2022-11-22T05:18:36.827Z,14.25
2022-11-22T05:21:07.792Z,21.00
2022-11-22T05:23:55.932Z,36.50
2022-11-22T05:26:27.799Z,35.00
2022-11-22T05:28:59.529Z,30.75
2022-11-22T05:31:29.709Z,28.00
2022-11-22T05:33:59.499Z,24.50
2022-11-22T05:36:29.242Z,26.50
2022-11-22T05:38:59.033Z,24.75
2022-11-22T05:41:28.746Z,24.75
2022-11-22T05:43:58.948Z,31.50
2022-11-22T05:46:30.431Z,26.00
2022-11-22T05:49:00.382Z,28.25
2022-11-22T05:51:34.852Z,43.25
2022-11-22T05:54:05.411Z,32.25
2022-11-22T05:56:35.230Z,31.25
2022-11-22T05:59:04.968Z,29.25
2022-11-22T06:01:37.546Z,27.75
2022-11-22T06:04:07.602Z,28.25
2022-11-22T06:06:37.132Z,23.75
2022-11-22T06:09:07.175Z,26.50
2022-11-22T06:11:37.342Z,24.25
2022-11-22T06:14:10.949Z,24.50
2022-11-22T06:16:40.985Z,19.50
2022-11-22T06:19:10.907Z,22.50
2022-11-22T06:21:40.774Z,23.00
2022-11-22T06:24:10.722Z,23.00
2022-11-22T06:26:40.406Z,21.00
2022-11-22T06:29:10.134Z,17.50
2022-11-22T06:31:39.766Z,19.75
2022-11-22T06:34:09.809Z,20.25
2022-11-22T06:36:40.563Z,20.75
2022-11-22T06:39:10.260Z,15.00
2022-11-22T06:41:40.155Z,22.00
2022-11-22T06:44:11.226Z,17.25
2022-11-22T06:46:40.896Z,19.75
2022-11-22T06:49:10.544Z,21.75
2022-11-22T06:51:40.584Z,21.25
2022-11-22T06:54:13.251Z,22.00
2022-11-22T06:56:43.415Z,16.50
2022-11-22T06:59:13.723Z,20.50
2022-11-22T07:01:43.301Z,23.00
2022-11-22T07:04:12.802Z,18.00
2022-11-22T07:06:42.854Z,18.75
2022-11-22T07:09:13.228Z,22.75
2022-11-22T07:11:43.242Z,17.00
2022-11-22T07:14:13.104Z,18.00
2022-11-22T07:16:42.833Z,20.50
2022-11-22T07:19:12.542Z,20.00
2022-11-22T07:21:42.193Z,20.75
2022-11-22T07:24:11.859Z,20.50
2022-11-22T07:26:41.222Z,21.75
2022-11-22T07:29:10.875Z,17.50
2022-11-22T07:31:40.654Z,16.50
2022-11-22T07:34:11.148Z,14.75
2022-11-22T07:36:40.993Z,20.75
2022-11-22T07:39:10.642Z,22.50
2022-11-22T07:41:41.308Z,25.25
2022-11-22T07:44:10.855Z,22.00
2022-11-22T07:46:40.437Z,20.75
2022-11-22T07:49:10.999Z,24.00
2022-11-22T07:51:41.119Z,19.00
2022-11-22T07:54:13.462Z,24.00
2022-11-22T07:56:43.102Z,23.50
2022-11-22T07:59:12.587Z,23.50
2022-11-22T08:01:42.160Z,18.00
2022-11-22T08:04:11.709Z,16.00
2022-11-22T08:06:41.162Z,16.00
2022-11-22T08:09:10.755Z,17.75
2022-11-22T08:11:40.503Z,25.50
2022-11-22T08:14:10.014Z,29.50
2022-11-22T08:16:39.513Z,27.00
2022-11-22T08:19:09.006Z,21.00
2022-11-22T08:21:38.429Z,23.25
2022-11-22T08:24:08.016Z,21.50
2022-11-22T08:26:37.662Z,17.75
2022-11-22T08:29:13.723Z,24.25
2022-11-22T08:31:43.619Z,23.75
2022-11-22T08:34:13.022Z,22.25
2022-11-22T08:36:42.539Z,21.25
2022-11-22T08:39:12.010Z,21.25
2022-11-22T08:41:41.393Z,26.25
2022-11-22T08:44:11.120Z,16.75
2022-11-22T08:46:40.606Z,19.50
2022-11-22T08:49:12.119Z,23.00
2022-11-22T08:51:46.162Z,18.50
2022-11-22T08:54:16.764Z,18.25
2022-11-22T08:56:46.194Z,17.50
2022-11-22T08:59:15.704Z,19.00
2022-11-22T09:01:45.304Z,21.75
2022-11-22T09:04:14.898Z,21.75
2022-11-22T09:09:43.280Z,19.25
2022-11-22T09:12:13.070Z,22.00
2022-11-22T09:14:42.570Z,23.00
2022-11-22T09:17:17.348Z,17.75
2022-11-22T09:19:47.471Z,22.00
2022-11-22T09:22:16.799Z,23.00
2022-11-22T09:24:46.089Z,18.75
2022-11-22T09:27:15.531Z,20.25
2022-11-22T09:29:44.905Z,20.00
2022-11-22T09:32:14.437Z,23.75
2022-11-22T09:34:43.994Z,17.75
2022-11-22T09:37:13.347Z,23.50
2022-11-22T09:39:47.980Z,20.75
2022-11-22T09:42:24.900Z,21.25
2022-11-22T09:45:10.086Z,20.75
2022-11-22T09:47:40.250Z,24.00
2022-11-22T09:50:09.867Z,19.00
2022-11-22T09:53:05.694Z,19.00
2022-11-22T09:55:46.194Z,17.25
2022-11-22T09:58:15.664Z,17.50
2022-11-22T10:00:52.050Z,13.50
2022-11-22T10:03:42.634Z,17.00
2022-11-22T10:06:16.136Z,15.75
2022-11-22T10:08:45.497Z,16.00
2022-11-22T10:11:21.152Z,20.75
2022-11-22T10:13:56.962Z,18.75
2022-11-22T10:16:29.886Z,19.00
2022-11-22T10:22:40.620Z,16.50
2022-11-22T10:25:23.182Z,16.75
2022-11-22T10:28:05.028Z,17.25
2022-11-22T10:30:38.563Z,18.25
2022-11-22T10:33:26.413Z,22.00
2022-11-22T10:36:13.521Z,17.75
2022-11-22T10:39:01.894Z,15.00
2022-11-22T10:42:02.778Z,17.75
2022-11-22T10:44:51.206Z,18.50
2022-11-22T10:47:33.021Z,13.00
2022-11-22T10:50:12.927Z,17.00
2022-11-22T10:52:48.369Z,15.25
2022-11-22T10:55:26.904Z,21.25
2022-11-22T10:57:59.077Z,19.00
2022-11-22T11:00:32.292Z,15.50
2022-11-22T11:03:13.843Z,16.25
2022-11-22T11:09:54.973Z,16.50
2022-11-22T11:11:50.397Z,16.50
2022-11-22T11:14:41.297Z,13.25
2022-11-22T11:17:15.500Z,15.75
2022-11-22T11:19:49.721Z,15.00
2022-11-22T11:22:37.402Z,14.50
2022-11-22T11:25:28.388Z,21.50
2022-11-22T11:28:08.951Z,23.75
2022-11-22T11:30:46.525Z,18.00
2022-11-22T11:33:25.795Z,29.25
2022-11-22T11:35:59.800Z,30.00
2022-11-22T11:38:44.157Z,25.25
2022-11-22T11:41:25.442Z,27.75
2022-11-22T11:43:55.699Z,24.25
2022-11-22T11:46:26.063Z,27.50
2022-11-22T11:48:57.740Z,26.75
2022-11-22T11:51:35.726Z,28.00
2022-11-22T11:54:08.844Z,23.00
2022-11-22T11:56:46.191Z,27.75
2022-11-22T11:59:19.617Z,28.50
2022-11-22T12:02:06.798Z,35.75
2022-11-22T12:04:37.857Z,30.00
2022-11-22T12:07:19.111Z,29.25
2022-11-22T12:09:50.551Z,30.00
2022-11-22T12:12:23.154Z,27.00
2022-11-22T12:15:10.710Z,29.00
2022-11-22T12:17:45.543Z,26.00
2022-11-22T12:20:22.633Z,29.50
2022-11-22T12:22:52.325Z,25.00
2022-11-22T12:25:37.327Z,25.25
2022-11-22T12:28:21.363Z,26.75
2022-11-22T12:31:09.336Z,23.75
2022-11-22T12:33:44.021Z,21.75
2022-11-22T12:36:29.616Z,23.25
2022-11-22T12:39:03.833Z,22.00
2022-11-22T12:41:34.828Z,24.25
2022-11-22T12:44:07.563Z,24.50
2022-11-22T12:46:41.477Z,23.00
2022-11-22T12:49:17.379Z,24.50
2022-11-22T12:51:49.981Z,24.75
2022-11-22T12:54:22.036Z,23.00
2022-11-22T12:57:03.058Z,25.25
2022-11-22T12:59:58.914Z,26.25
2022-11-22T13:02:32.658Z,26.75
2022-11-22T13:05:17.438Z,26.75
2022-11-22T13:08:06.949Z,28.25
2022-11-22T13:10:36.868Z,27.75
2022-11-22T13:13:08.232Z,23.75
2022-11-22T13:15:39.251Z,29.00
2022-11-22T13:18:13.708Z,25.00
2022-11-22T13:20:46.356Z,30.25
2022-11-22T13:23:32.983Z,29.50
2022-11-22T13:26:14.889Z,31.25
2022-11-22T13:28:46.813Z,28.00
2022-11-22T13:31:18.697Z,32.25
2022-11-22T13:34:01.221Z,31.75
2022-11-22T13:36:34.365Z,28.00
2022-11-22T13:39:14.331Z,32.25
2022-11-22T13:42:04.296Z,33.75
2022-11-22T13:44:35.194Z,31.25
2022-11-22T13:47:26.163Z,32.50
2022-11-22T13:49:56.896Z,31.00
2022-11-22T13:52:26.913Z,24.00
2022-11-22T13:54:58.062Z,27.75
2022-11-22T13:57:28.761Z,29.25
2022-11-22T14:00:17.356Z,31.50
2022-11-22T14:02:49.799Z,31.25
2022-11-22T14:05:27.328Z,33.50
2022-11-22T14:08:00.669Z,34.00
2022-11-22T14:10:43.748Z,29.75
2022-11-22T14:13:18.137Z,35.25
2022-11-22T14:15:50.415Z,37.25
2022-11-22T14:18:24.399Z,32.00
2022-11-22T14:20:56.753Z,30.75
2022-11-22T14:23:33.787Z,35.25
2022-11-22T14:26:17.367Z,35.00
2022-11-22T14:29:01.937Z,31.25
2022-11-22T14:31:32.992Z,34.75
2022-11-22T14:34:20.216Z,34.50
2022-11-22T14:37:07.780Z,36.50
2022-11-22T14:39:46.675Z,34.75
2022-11-22T14:42:34.345Z,35.00
2022-11-22T14:45:13.685Z,35.00
2022-11-22T14:47:48.178Z,35.50
2022-11-22T14:50:33.479Z,34.75
2022-11-22T14:53:08.840Z,33.25
2022-11-22T14:55:39.987Z,37.00
2022-11-22T14:58:18.037Z,34.00
2022-11-22T15:01:12.880Z,34.75
2022-11-22T15:09:15.566Z,35.50
2022-11-22T15:09:16.117Z,35.50
2022-11-22T15:10:09.875Z,34.50
2022-11-22T15:12:51.688Z,39.00
2022-11-22T15:59:43.346Z,37.50
2022-11-22T16:02:16.014Z,38.50
2022-11-22T16:06:04.332Z,35.50
2022-11-22T16:07:48.076Z,39.75
2022-11-22T16:10:25.287Z,36.50
2022-11-22T16:13:13.426Z,40.00
2022-11-22T16:15:43.127Z,39.25
2022-11-22T16:18:12.761Z,37.25
2022-11-22T16:21:16.129Z,38.25
2022-11-22T16:23:49.340Z,37.25
2022-11-22T16:26:26.252Z,38.25
2022-11-22T16:28:56.733Z,38.00
2022-11-22T16:31:26.416Z,39.00
2022-11-22T16:33:56.767Z,36.75
2022-11-22T16:36:27.054Z,37.75
2022-11-22T16:38:57.403Z,38.75
2022-11-22T16:41:28.848Z,38.50
2022-11-22T16:44:03.065Z,36.75
2022-11-22T16:46:32.984Z,36.50
2022-11-22T16:49:02.718Z,35.00
2022-11-22T16:51:32.465Z,35.75
2022-11-22T16:54:07.511Z,35.75
2022-11-22T16:56:37.176Z,33.75
2022-11-22T16:59:12.223Z,33.50
2022-11-22T17:01:45.750Z,34.75
2022-11-22T17:04:23.577Z,33.50
2022-11-22T17:06:53.784Z,35.00
2022-11-22T17:09:24.163Z,34.00
2022-11-22T17:11:53.662Z,31.50
2022-11-22T17:14:23.074Z,34.25
2022-11-22T17:16:52.599Z,33.50
2022-11-22T17:19:45.967Z,35.50
2022-11-22T17:22:13.563Z,35.25
2022-11-22T17:24:44.317Z,34.75
2022-11-22T17:27:17.476Z,31.75
2022-11-22T17:29:51.020Z,34.00
2022-11-22T17:32:21.101Z,33.00
2022-11-22T17:34:50.628Z,34.75
2022-11-22T17:37:20.358Z,31.50
2022-11-22T17:39:52.885Z,34.75
2022-11-22T17:42:23.287Z,36.50
2022-11-22T17:44:52.536Z,32.50
2022-11-22T17:47:22.146Z,36.75
2022-11-22T17:49:51.523Z,33.50
2022-11-22T17:52:20.811Z,37.00
2022-11-22T17:54:50.035Z,32.75
2022-11-22T17:57:19.340Z,32.75
2022-11-22T17:59:49.023Z,33.75
2022-11-22T18:02:18.260Z,32.25
2022-11-22T18:04:47.490Z,32.50
2022-11-22T18:07:17.389Z,32.00
2022-11-22T18:09:47.049Z,33.50
2022-11-22T18:12:16.413Z,35.00
2022-11-22T18:14:45.662Z,32.00
2022-11-22T18:17:15.352Z,29.75
2022-11-22T18:19:44.900Z,33.00
2022-11-22T18:22:14.162Z,27.50
2022-11-22T18:24:43.432Z,31.25
2022-11-22T18:27:12.791Z,31.00
2022-11-22T18:29:43.177Z,32.00
2022-11-22T18:32:14.110Z,31.25
2022-11-22T18:34:44.128Z,31.00
2022-11-22T18:37:13.595Z,30.25
2022-11-22T18:39:42.917Z,26.75
2022-11-22T18:42:14.511Z,29.50
2022-11-22T18:44:43.902Z,27.00
2022-11-22T18:47:13.191Z,30.00
2022-11-22T18:49:42.469Z,31.75
2022-11-22T18:52:14.851Z,29.00
2022-11-22T18:54:46.048Z,29.75
2022-11-22T18:57:15.327Z,29.00
2022-11-22T18:59:44.626Z,27.50
2022-11-22T19:02:13.871Z,26.25
2022-11-22T19:04:43.210Z,31.75
2022-11-22T19:07:12.863Z,30.00
2022-11-22T19:09:43.143Z,26.50
2022-11-22T19:12:12.388Z,30.00
2022-11-22T19:14:41.628Z,29.50
2022-11-22T19:17:11.559Z,25.00
2022-11-22T19:19:40.804Z,30.00
2022-11-22T19:22:10.047Z,23.50
2022-11-22T19:24:42.457Z,27.75
2022-11-22T19:27:12.884Z,26.00
2022-11-22T19:29:42.311Z,28.25
2022-11-22T19:32:11.676Z,29.50
2022-11-22T19:34:41.066Z,30.75
2022-11-22T19:37:10.319Z,25.50
2022-11-22T19:39:39.547Z,22.25
2022-11-22T19:42:08.812Z,25.00
2022-11-22T19:44:39.819Z,25.25
2022-11-22T19:47:09.076Z,23.75
2022-11-22T19:49:38.360Z,26.50
2022-11-22T19:52:07.656Z,25.25
2022-11-22T19:54:36.951Z,21.25
2022-11-22T19:57:06.164Z,22.75
2022-11-22T19:59:37.047Z,26.25
2022-11-22T20:02:06.680Z,19.75
2022-11-22T20:04:35.935Z,27.75
2022-11-22T20:07:05.968Z,22.50
2022-11-22T20:09:35.291Z,26.00
2022-11-22T20:12:04.645Z,24.00
2022-11-22T20:14:34.324Z,25.75
2022-11-22T20:17:03.725Z,23.00
2022-11-22T20:19:34.380Z,23.00
2022-11-22T20:22:04.037Z,25.00
2022-11-22T20:24:33.634Z,22.50
2022-11-22T20:27:03.742Z,22.00
2022-11-22T20:29:33.036Z,25.75
2022-11-22T20:32:02.920Z,24.25
2022-11-22T20:34:34.219Z,22.25
2022-11-22T20:37:04.585Z,26.50
2022-11-22T20:39:36.614Z,25.25
2022-11-22T20:42:32.912Z,19.00
2022-11-22T20:44:56.632Z,25.50
2022-11-22T20:47:25.954Z,23.00
2022-11-22T20:49:55.213Z,22.75
2022-11-22T20:52:24.643Z,23.75
2022-11-22T20:54:54.021Z,24.50
2022-11-22T20:57:23.301Z,25.00
2022-11-22T20:59:52.607Z,27.00
2022-11-22T21:02:21.931Z,26.00
2022-11-22T21:04:51.194Z,22.50
2022-11-22T21:07:20.529Z,26.25
2022-11-22T21:09:49.898Z,27.00
2022-11-22T21:12:20.409Z,25.00
2022-11-22T21:14:53.597Z,27.00
2022-11-22T21:17:45.534Z,20.50
2022-11-22T21:20:13.125Z,21.25
2022-11-22T21:22:43.745Z,20.50
2022-11-22T21:25:13.081Z,23.50
2022-11-22T21:27:42.330Z,26.00
2022-11-22T21:30:11.834Z,23.50
2022-11-22T21:32:41.180Z,24.75
2022-11-22T21:35:10.886Z,22.75
2022-11-22T21:37:43.145Z,21.25
2022-11-22T21:40:13.839Z,25.75
2022-11-22T21:42:43.167Z,20.00
2022-11-22T21:45:12.542Z,21.25
2022-11-22T21:47:42.882Z,20.75
2022-11-22T21:50:13.712Z,19.25
2022-11-22T21:52:43.592Z,20.75
2022-11-22T21:55:13.299Z,25.50
2022-11-22T21:57:42.645Z,23.25
2022-11-22T22:00:12.306Z,21.75
2022-11-22T22:02:41.592Z,21.00
2022-11-22T22:05:11.094Z,17.75
2022-11-22T22:07:55.696Z,16.75
2022-11-22T22:10:24.994Z,19.50
2022-11-22T22:12:54.406Z,20.75
2022-11-22T22:15:23.709Z,20.00
2022-11-22T22:17:55.861Z,23.50
2022-11-22T22:20:25.494Z,21.50
2022-11-22T22:22:54.797Z,22.25
2022-11-22T22:25:24.094Z,19.50
2022-11-22T22:27:53.354Z,23.50
2022-11-22T22:30:24.267Z,20.00
2022-11-22T22:32:53.754Z,18.50
2022-11-22T22:35:24.397Z,18.50
2022-11-22T22:37:53.823Z,23.75
2022-11-22T22:40:23.946Z,21.00
2022-11-22T22:42:53.212Z,19.00
2022-11-22T22:45:22.428Z,20.75
2022-11-22T22:47:53.058Z,17.50
2022-11-22T22:50:22.792Z,19.25
2022-11-22T22:52:52.094Z,23.00
2022-11-22T22:55:21.323Z,18.75
2022-11-22T22:57:50.604Z,22.25
2022-11-22T23:00:20.239Z,15.75
2022-11-22T23:02:49.534Z,22.25
2022-11-22T23:05:18.985Z,22.00
2022-11-22T23:07:48.409Z,22.25
2022-11-22T23:10:18.083Z,26.00
2022-11-22T23:12:47.304Z,23.00
2022-11-22T23:15:21.760Z,20.75
2022-11-22T23:17:57.662Z,20.75
2022-11-22T23:20:26.919Z,20.25
2022-11-22T23:22:56.304Z,18.75
2022-11-22T23:25:25.623Z,23.75
2022-11-22T23:27:54.912Z,19.50
2022-11-22T23:30:24.169Z,20.75
2022-11-22T23:32:53.408Z,31.00
2022-11-22T23:35:23.093Z,24.25
2022-11-22T23:37:52.432Z,20.50
2022-11-22T23:40:21.638Z,15.25
2022-11-22T23:42:50.887Z,17.25
2022-11-22T23:45:20.186Z,22.50
2022-11-22T23:47:52.098Z,25.75
2022-11-22T23:50:21.559Z,28.75
2022-11-22T23:52:56.401Z,24.75
2022-11-22T23:55:25.987Z,26.00
2022-11-22T23:57:55.323Z,21.75
